Time;durP1;ratioP1;P1;durP2;ratioP2;P2;SDS_P1;SDS_P2;PMS_P1;PMS_P2;Temp;Humidity;BMP_temperature;BMP_pressure;BME280_temperature;BME280_humidity;BME280_pressure;Samples;Min_cycle;Max_cycle;Signal;HPM_P1;HPM_P2
2024/03/18 00:02:56;;;;;;;0.90;0.90;;;;;;;10.29;100.00;101444.94;10502985;28;20416;-72
2024/03/18 00:07:56;;;;;;;2.45;2.35;;;;;;;10.21;100.00;101442.25;10502463;28;20044;-71
2024/03/18 00:12:57;;;;;;;0.65;0.65;;;;;;;10.17;100.00;101438.22;10502740;28;20033;-72
2024/03/18 00:17:57;;;;;;;1.23;1.23;;;;;;;10.14;100.00;101441.28;10502856;28;20047;-72
2024/03/18 00:22:58;;;;;;;0.57;0.57;;;;;;;10.13;100.00;101442.31;10501995;28;20336;-71
2024/03/18 00:27:58;;;;;;;0.47;0.47;;;;;;;10.10;100.00;101440.81;10500953;28;20024;-71
2024/03/18 00:32:58;;;;;;;0.30;0.30;;;;;;;10.10;100.00;101434.56;10500877;28;20025;-71
2024/03/18 00:37:59;;;;;;;0.50;0.50;;;;;;;10.10;100.00;101423.75;10483215;28;20036;-72
2024/03/18 00:42:59;;;;;;;1.35;1.35;;;;;;;10.21;100.00;101421.47;10484490;28;20115;-72
2024/03/18 00:48:00;;;;;;;1.35;1.35;;;;;;;10.36;100.00;101417.97;10500075;28;20025;-71
2024/03/18 00:53:00;;;;;;;0.75;0.75;;;;;;;10.45;100.00;101423.13;10500567;28;20422;-71
2024/03/18 00:58:01;;;;;;;2.22;2.15;;;;;;;10.51;100.00;101415.28;10500213;28;20066;-71
2024/03/18 01:03:03;;;;;;;1.50;1.50;;;;;;;10.55;100.00;101416.59;10498974;28;20036;-71
2024/03/18 01:08:03;;;;;;;1.17;1.17;;;;;;;10.57;100.00;101409.97;10499946;28;20128;-71
2024/03/18 01:13:06;;;;;;;0.95;0.95;;;;;;;10.52;100.00;101412.38;10500627;28;20143;-71
2024/03/18 01:18:07;;;;;;;0.73;0.63;;;;;;;10.54;100.00;101407.63;10498185;28;20040;-71
2024/03/18 01:23:07;;;;;;;1.67;1.65;;;;;;;10.58;100.00;101402.69;10500875;28;20036;-71
2024/03/18 01:28:08;;;;;;;0.50;0.50;;;;;;;10.61;100.00;101402.31;10498452;28;20583;-71
2024/03/18 01:33:08;;;;;;;1.50;1.50;;;;;;;10.61;100.00;101388.78;10480441;28;20033;-71
2024/03/18 01:38:09;;;;;;;0.70;0.70;;;;;;;10.51;100.00;101389.06;10498707;28;20157;-71
2024/03/18 01:43:09;;;;;;;1.77;1.73;;;;;;;10.60;100.00;101392.53;10498907;28;20419;-71
2024/03/18 01:48:11;;;;;;;0.88;0.88;;;;;;;10.53;100.00;101391.56;10498355;28;20025;-71
2024/03/18 01:53:12;;;;;;;0.40;0.40;;;;;;;10.61;100.00;101384.19;10496800;28;20056;-71
2024/03/18 01:58:12;;;;;;;1.08;1.08;;;;;;;10.60;100.00;101374.41;10499019;28;20032;-71
2024/03/18 02:03:13;;;;;;;1.70;1.65;;;;;;;10.61;100.00;101383.38;10499134;28;20286;-71
2024/03/18 02:08:14;;;;;;;0.55;0.55;;;;;;;10.60;100.00;101376.28;10497850;28;20054;-71
2024/03/18 02:13:15;;;;;;;0.47;0.47;;;;;;;10.54;100.00;101367.03;10499858;28;20040;-71
2024/03/18 02:18:16;;;;;;;0.55;0.55;;;;;;;10.60;100.00;101373.56;10496680;28;20027;-71
2024/03/18 02:23:17;;;;;;;1.05;1.05;;;;;;;10.62;100.00;101369.63;10496364;28;20491;-71
2024/03/18 02:28:17;;;;;;;0.95;0.95;;;;;;;10.57;100.00;101365.81;10496730;28;20381;-71
2024/03/18 02:33:18;;;;;;;3.22;3.08;;;;;;;10.63;100.00;101355.06;10497137;28;20056;-71
2024/03/18 02:38:18;;;;;;;2.38;1.75;;;;;;;10.62;100.00;101347.13;10495905;28;20517;-71
2024/03/18 02:43:18;;;;;;;0.43;0.43;;;;;;;10.66;100.00;101348.44;10494682;28;20021;-71
2024/03/18 02:48:19;;;;;;;0.60;0.60;;;;;;;10.55;100.00;101344.31;10496099;28;20024;-70
2024/03/18 02:53:19;;;;;;;1.17;1.17;;;;;;;10.58;100.00;101335.81;10495579;28;20089;-71
2024/03/18 02:58:20;;;;;;;0.47;0.47;;;;;;;10.57;100.00;101344.16;10496616;28;20384;-71
2024/03/18 03:03:21;;;;;;;0.40;0.40;;;;;;;10.57;100.00;101349.56;10494627;28;20123;-72
2024/03/18 03:08:22;;;;;;;1.17;1.17;;;;;;;10.60;100.00;101349.19;10495608;28;20055;-71
2024/03/18 03:13:23;;;;;;;0.88;0.88;;;;;;;10.61;100.00;101343.56;10494518;28;20372;-70
2024/03/18 03:18:24;;;;;;;0.40;0.40;;;;;;;10.57;100.00;101347.69;10495425;28;20064;-71
2024/03/18 03:23:24;;;;;;;1.20;1.20;;;;;;;10.60;100.00;101349.19;10494388;28;20035;-71
2024/03/18 03:28:25;;;;;;;2.65;2.55;;;;;;;10.56;100.00;101339.75;10495396;28;20109;-71
2024/03/18 03:33:27;;;;;;;0.82;0.82;;;;;;;10.56;100.00;101339.75;10495431;28;20401;-71
2024/03/18 03:38:28;;;;;;;0.43;0.43;;;;;;;10.53;100.00;101342.81;10495195;28;20425;-71
2024/03/18 03:43:28;;;;;;;0.82;0.82;;;;;;;10.56;100.00;101355.97;10493183;28;20131;-71
2024/03/18 03:48:29;;;;;;;0.55;0.55;;;;;;;10.56;100.00;101358.69;10495133;28;20027;-70
2024/03/18 03:53:29;;;;;;;0.50;0.50;;;;;;;10.52;100.00;101362.81;10495551;28;20039;-71
2024/03/18 03:58:33;;;;;;;2.17;2.10;;;;;;;10.52;100.00;101369.06;10496336;28;20094;-71
2024/03/18 04:03:33;;;;;;;8.98;3.42;;;;;;;10.48;100.00;101374.00;10501106;28;20504;-70
2024/03/18 04:08:34;;;;;;;1.25;1.25;;;;;;;10.47;100.00;101375.03;10501984;28;20052;-70
2024/03/18 04:13:34;;;;;;;2.58;2.35;;;;;;;10.45;100.00;101371.66;10502918;28;20024;-71
2024/03/18 04:18:38;;;;;;;0.80;0.80;;;;;;;10.46;100.00;101381.50;10501315;28;20043;-70
2024/03/18 04:23:38;;;;;;;0.70;0.70;;;;;;;10.46;100.00;101376.09;10501436;28;20115;-70
2024/03/18 04:28:38;;;;;;;0.57;0.57;;;;;;;10.45;100.00;101387.06;10501512;28;20118;-70
2024/03/18 04:33:39;;;;;;;0.93;0.93;;;;;;;10.44;100.00;101383.53;10502024;28;20113;-70
2024/03/18 04:38:39;;;;;;;0.93;0.93;;;;;;;10.43;100.00;101387.28;10502310;28;20503;-71
2024/03/18 04:43:40;;;;;;;0.68;0.68;;;;;;;10.41;100.00;101383.91;10501689;28;20039;-71
2024/03/18 04:48:40;;;;;;;1.05;1.05;;;;;;;10.38;100.00;101386.97;10501593;28;20368;-70
2024/03/18 04:53:41;;;;;;;2.08;1.85;;;;;;;10.40;100.00;101398.47;10500355;28;20089;-71
2024/03/18 04:58:41;;;;;;;0.40;0.40;;;;;;;10.40;100.00;101395.78;10498936;28;20448;-70
2024/03/18 05:03:42;;;;;;;1.95;1.80;;;;;;;10.40;100.00;101400.31;10498212;28;20032;-70
2024/03/18 05:08:43;;;;;;;0.60;0.60;;;;;;;10.42;100.00;101401.00;10500748;28;20384;-70
2024/03/18 05:13:44;;;;;;;0.47;0.47;;;;;;;10.43;100.00;101398.09;10500067;28;20056;-70
2024/03/18 05:18:44;;;;;;;0.47;0.47;;;;;;;10.44;100.00;101397.06;10500070;28;20064;-70
2024/03/18 05:23:45;;;;;;;2.20;2.10;;;;;;;10.42;100.00;101384.75;10499237;28;20032;-70
2024/03/18 05:28:45;;;;;;;0.70;0.70;;;;;;;10.43;100.00;101391.81;10499281;28;20356;-70
2024/03/18 05:33:45;;;;;;;1.15;1.15;;;;;;;10.42;100.00;101390.16;10499193;28;20093;-70
2024/03/18 05:38:46;;;;;;;2.55;2.42;;;;;;;10.43;100.00;101392.69;10497982;28;20037;-70
2024/03/18 05:43:47;;;;;;;1.35;1.35;;;;;;;10.46;100.00;101394.16;10498417;28;20127;-70
2024/03/18 05:48:47;;;;;;;0.75;0.75;;;;;;;10.42;100.00;101391.00;10498127;28;20158;-70
2024/03/18 05:53:48;;;;;;;1.08;1.08;;;;;;;10.41;100.00;101373.06;10499356;28;20521;-70
2024/03/18 05:58:48;;;;;;;11.75;9.05;;;;;;;10.41;100.00;101377.66;10497820;28;20068;-70
2024/03/18 06:03:49;;;;;;;22.00;10.82;;;;;;;10.44;100.00;101385.41;10497043;28;20101;-70
2024/03/18 06:08:49;;;;;;;19.90;10.65;;;;;;;10.45;100.00;101387.91;10478355;28;20052;-69
2024/03/18 06:13:49;;;;;;;24.75;10.73;;;;;;;10.47;100.00;101402.13;10497702;28;20044;-71
2024/03/18 06:18:54;;;;;;;33.92;13.77;;;;;;;10.54;100.00;101415.75;10456135;28;20048;-70
2024/03/18 06:24:05;;;;;;;26.60;10.90;;;;;;;10.59;100.00;101404.38;10455120;28;20464;-70
2024/03/18 06:29:05;;;;;;;22.58;10.95;;;;;;;10.63;100.00;101403.00;10455678;28;20369;-70
2024/03/18 06:34:06;;;;;;;19.92;9.15;;;;;;;10.60;100.00;101403.34;10454516;28;20039;-70
2024/03/18 06:39:08;;;;;;;36.40;11.43;;;;;;;10.51;100.00;101416.13;10453877;28;20060;-70
2024/03/18 06:44:09;;;;;;;22.48;9.52;;;;;;;10.52;100.00;101417.81;10455682;28;20036;-70
2024/03/18 06:49:09;;;;;;;26.58;11.68;;;;;;;10.62;100.00;101425.66;10455265;28;20036;-69
2024/03/18 06:54:10;;;;;;;20.63;9.55;;;;;;;10.68;100.00;101438.47;10454485;28;20029;-69
2024/03/18 06:59:10;;;;;;;22.63;9.98;;;;;;;10.74;100.00;101443.16;10455507;28;20076;-70
2024/03/18 07:04:10;;;;;;;34.20;10.20;;;;;;;10.72;100.00;101453.34;10454986;28;20044;-71
2024/03/18 07:09:11;;;;;;;29.17;10.52;;;;;;;10.81;100.00;101446.78;10453686;28;20072;-70
2024/03/18 07:14:13;;;;;;;31.90;8.85;;;;;;;10.86;100.00;101455.22;10453336;28;20037;-69
2024/03/18 07:19:14;;;;;;;27.50;10.07;;;;;;;11.01;100.00;101448.94;10453640;28;20056;-69
2024/03/18 07:24:15;;;;;;;29.02;8.80;;;;;;;11.16;100.00;101457.91;10454467;28;20428;-69
2024/03/18 07:29:17;;;;;;;18.63;9.75;;;;;;;11.30;100.00;101458.94;10454004;28;20033;-70
2024/03/18 07:34:17;;;;;;;23.15;8.57;;;;;;;11.49;100.00;101452.94;10454386;28;20025;-70
2024/03/18 07:39:19;;;;;;;22.92;7.68;;;;;;;11.77;100.00;101457.63;10462278;28;20029;-70
2024/03/18 07:44:19;;;;;;;23.10;8.85;;;;;;;12.13;100.00;101449.50;10460380;28;20033;-70
2024/03/18 07:49:20;;;;;;;20.55;8.63;;;;;;;12.64;100.00;101448.47;10461531;28;20120;-69
2024/03/18 07:54:20;;;;;;;19.80;7.45;;;;;;;13.43;100.00;101458.97;10461372;28;20029;-70
2024/03/18 07:59:20;;;;;;;19.02;8.20;;;;;;;14.45;100.00;101452.47;10461331;28;20033;-70
2024/03/18 08:04:21;;;;;;;12.20;7.07;;;;;;;14.35;100.00;101462.97;10461063;28;20037;-70
2024/03/18 08:09:21;;;;;;;11.18;6.00;;;;;;;14.34;100.00;101473.03;10461878;28;20449;-70
2024/03/18 08:14:22;;;;;;;16.67;6.20;;;;;;;15.32;100.00;101477.78;10461342;28;20077;-70
2024/03/18 08:19:22;;;;;;;13.52;4.40;;;;;;;16.92;100.00;101473.00;10460348;28;20043;-70
2024/03/18 08:24:23;;;;;;;7.63;4.28;;;;;;;17.25;100.00;101482.75;10459698;28;20029;-70
2024/03/18 08:29:24;;;;;;;8.02;4.03;;;;;;;16.22;100.00;101485.97;10459388;28;20035;-70
2024/03/18 08:34:24;;;;;;;7.75;3.78;;;;;;;15.71;100.00;101495.09;10459894;28;20033;-70
2024/03/18 08:39:25;;;;;;;12.00;4.30;;;;;;;15.16;100.00;101506.38;10459082;28;20447;-70
2024/03/18 08:44:26;;;;;;;12.15;3.75;;;;;;;14.79;100.00;101513.34;10458704;28;20111;-70
2024/03/18 08:49:26;;;;;;;8.13;2.22;;;;;;;14.69;100.00;101505.56;10457463;28;20136;-69
2024/03/18 08:54:28;;;;;;;7.70;4.15;;;;;;;15.35;100.00;101513.66;10459239;28;20033;-69
2024/03/18 08:59:29;;;;;;;3.13;2.22;;;;;;;16.29;100.00;101511.34;10458411;28;20063;-70
2024/03/18 09:04:29;;;;;;;7.78;2.83;;;;;;;17.09;100.00;101521.66;10459391;28;20395;-69
2024/03/18 09:09:33;;;;;;;10.57;3.08;;;;;;;16.31;100.00;101519.34;10457042;28;20045;-69
2024/03/18 09:14:33;;;;;;;8.82;2.90;;;;;;;15.95;100.00;101527.13;10457601;28;20029;-69
2024/03/18 09:19:40;;;;;;;8.23;3.72;;;;;;;15.76;100.00;101523.44;10458181;28;20060;-70
2024/03/18 09:24:40;;;;;;;6.78;2.75;;;;;;;15.77;100.00;101518.81;10458978;28;20025;-70
2024/03/18 09:29:40;;;;;;;7.75;3.00;;;;;;;15.74;100.00;101521.97;10457070;28;20393;-69
2024/03/18 09:34:42;;;;;;;3.10;2.80;;;;;;;15.85;100.00;101534.91;10440696;28;20044;-70
2024/03/18 09:39:42;;;;;;;8.85;4.07;;;;;;;15.79;100.00;101538.50;10457666;28;20185;-69
2024/03/18 09:44:43;;;;;;;7.20;2.92;;;;;;;16.67;100.00;101535.88;10458136;28;20530;-70
2024/03/18 09:49:44;;;;;;;9.73;3.28;;;;;;;17.63;100.00;101540.03;10457305;28;20025;-70
2024/03/18 09:54:51;;;;;;;13.80;3.33;;;;;;;18.65;100.00;101541.19;10456917;28;20025;-70
2024/03/18 09:59:51;;;;;;;5.97;2.53;;;;;;;19.27;100.00;101538.84;10457400;28;20120;-70
2024/03/18 10:04:52;;;;;;;3.35;3.05;;;;;;;19.88;100.00;101545.72;10456962;28;20037;-70
2024/03/18 10:09:53;;;;;;;7.63;2.85;;;;;;;20.61;100.00;101548.75;10455342;28;20053;-70
2024/03/18 10:14:53;;;;;;;5.97;1.90;;;;;;;21.04;100.00;101553.59;10454558;28;20051;-70
2024/03/18 10:19:53;;;;;;;9.38;2.95;;;;;;;21.20;100.00;101542.81;10455754;28;20108;-70
2024/03/18 10:24:55;;;;;;;4.25;1.98;;;;;;;21.46;100.00;101544.88;10453276;28;20048;-70
2024/03/18 10:29:55;;;;;;;5.82;2.53;;;;;;;21.49;100.00;101555.38;10437185;28;20066;-70
2024/03/18 10:35:00;;;;;;;3.88;2.40;;;;;;;21.57;100.00;101557.72;10437194;28;20033;-70
2024/03/18 10:40:05;;;;;;;6.95;2.33;;;;;;;21.79;100.00;101554.97;10455917;28;20032;-70
2024/03/18 10:45:18;;;;;;;2.72;1.88;;;;;;;21.83;100.00;101558.88;10455423;28;20044;-70
2024/03/18 10:50:19;;;;;;;3.40;2.13;;;;;;;20.87;100.00;101569.31;10453528;28;20384;-70
2024/03/18 10:55:20;;;;;;;2.08;1.98;;;;;;;20.05;100.00;101573.28;10455150;28;20071;-70
2024/03/18 11:00:21;;;;;;;6.30;2.47;;;;;;;20.78;100.00;101566.13;10453394;28;20029;-70
2024/03/18 11:05:23;;;;;;;4.10;2.22;;;;;;;21.38;100.00;101564.63;10436351;28;20410;-70
2024/03/18 11:10:27;;;;;;;4.10;2.42;;;;;;;21.57;100.00;101578.94;10441932;28;20056;-70
2024/03/18 11:15:27;;;;;;;8.55;2.90;;;;;;;21.69;100.00;101573.28;10467581;28;20031;-70
2024/03/18 11:20:28;;;;;;;5.15;2.55;;;;;;;21.88;100.00;101577.38;10467419;28;20043;-70
2024/03/18 11:25:28;;;;;;;1.95;1.70;;;;;;;22.06;100.00;101579.81;10465654;28;20025;-70
2024/03/18 11:30:30;;;;;;;1.83;1.73;;;;;;;22.22;100.00;101571.75;10467602;28;20341;-70
2024/03/18 11:35:34;;;;;;;3.85;2.30;;;;;;;21.43;100.00;101581.19;10466992;28;20079;-70
2024/03/18 11:40:39;;;;;;;2.55;2.17;;;;;;;20.41;100.00;101582.19;10450197;28;20081;-70
2024/03/18 11:45:40;;;;;;;4.97;2.47;;;;;;;20.87;100.00;101580.31;10467959;28;20029;-70
2024/03/18 11:50:40;;;;;;;6.07;2.75;;;;;;;22.05;100.00;101571.81;10466360;28;20528;-71
2024/03/18 11:55:40;;;;;;;3.17;1.63;;;;;;;21.57;100.00;101584.44;10465309;28;20025;-70
2024/03/18 12:00:42;;;;;;;12.98;3.45;;;;;;;21.18;100.00;101584.38;10465847;28;20053;-70
2024/03/18 12:05:44;;;;;;;4.03;2.17;;;;;;;20.54;100.00;101592.09;10466231;28;20100;-70
2024/03/18 12:10:47;;;;;;;5.25;2.50;;;;;;;20.12;100.00;101600.63;10482567;28;20067;-70
2024/03/18 12:15:48;;;;;;;7.95;3.13;;;;;;;19.71;100.00;101595.09;10465821;28;20075;-70
2024/03/18 12:20:53;;;;;;;7.30;2.92;;;;;;;19.32;100.00;101598.56;10447055;28;20333;-70
2024/03/18 12:31:12;;;;;;;4.00;2.53;;;;;;;20.10;100.00;101580.78;10444688;28;20024;-70
2024/03/18 12:36:14;;;;;;;4.28;3.00;;;;;;;20.37;100.00;101583.78;10459948;28;20028;-70
2024/03/18 12:41:18;;;;;;;24.77;4.00;;;;;;;21.16;100.00;101594.00;10459081;28;20029;-70
2024/03/18 12:46:19;;;;;;;3.70;2.42;;;;;;;20.45;100.00;101580.63;10458163;28;20506;-70
2024/03/18 12:51:20;;;;;;;20.45;3.75;;;;;;;20.07;100.00;101586.75;10442098;28;20171;-70
2024/03/18 12:56:21;;;;;;;5.68;2.67;;;;;;;19.63;100.00;101581.72;10457879;28;20021;-70
2024/03/18 13:01:21;;;;;;;5.15;3.17;;;;;;;19.81;100.00;101588.16;10458840;28;20384;-70
2024/03/18 13:06:23;;;;;;;11.65;3.55;;;;;;;19.80;100.00;101586.50;10457898;28;20460;-70
2024/03/18 13:11:23;;;;;;;4.15;2.22;;;;;;;20.51;100.00;101576.06;10456221;28;20033;-70
2024/03/18 13:16:24;;;;;;;6.22;2.47;;;;;;;20.13;100.00;101585.78;10457956;28;20032;-70
2024/03/18 13:21:25;;;;;;;3.90;2.97;;;;;;;18.85;100.00;101579.31;10457885;28;20037;-70
2024/03/18 13:26:25;;;;;;;18.23;2.92;;;;;;;19.26;100.00;101579.22;10456732;28;20037;-70
2024/03/18 13:31:26;;;;;;;4.30;3.03;;;;;;;19.50;100.00;101579.22;10457741;28;20083;-70
2024/03/18 13:36:26;;;;;;;9.50;3.38;;;;;;;19.85;100.00;101575.63;10454337;28;20029;-70
2024/03/18 13:41:30;;;;;;;7.55;3.30;;;;;;;20.11;100.00;101569.53;10457816;28;20041;-71
2024/03/18 13:46:30;;;;;;;5.25;2.78;;;;;;;20.12;100.00;101575.88;10438847;28;20461;-70
2024/03/18 13:51:31;;;;;;;6.78;2.50;;;;;;;19.65;100.00;101574.06;10455470;28;20025;-70
2024/03/18 13:56:32;;;;;;;9.80;2.28;;;;;;;18.44;100.00;101579.06;10456623;28;20041;-70
2024/03/18 14:01:32;;;;;;;7.45;3.63;;;;;;;18.32;100.00;101579.03;10455602;28;20029;-70
2024/03/18 14:06:33;;;;;;;10.73;4.85;;;;;;;18.76;100.00;101565.94;10454919;28;20044;-70
2024/03/18 14:11:33;;;;;;;8.55;3.80;;;;;;;18.25;100.00;101572.81;10455538;28;20037;-71
2024/03/18 14:16:34;;;;;;;14.70;4.20;;;;;;;17.60;100.00;101572.50;10455184;28;20036;-69
2024/03/18 14:21:34;;;;;;;4.57;2.70;;;;;;;17.06;100.00;101565.91;10457310;28;20033;-70
2024/03/18 14:26:34;;;;;;;4.05;3.22;;;;;;;16.99;100.00;101565.97;10456545;28;20155;-70
2024/03/18 14:31:35;;;;;;;8.43;3.75;;;;;;;16.33;100.00;101572.72;10455111;28;20123;-69
2024/03/18 14:36:38;;;;;;;9.63;3.67;;;;;;;16.36;100.00;101564.06;10455227;28;20436;-69
2024/03/18 14:41:39;;;;;;;8.30;3.03;;;;;;;17.25;100.00;101564.03;10454597;28;20061;-70
2024/03/18 14:46:40;;;;;;;7.93;3.20;;;;;;;16.59;100.00;101565.41;10452692;28;20472;-69
2024/03/18 14:51:40;;;;;;;5.30;3.45;;;;;;;16.22;100.00;101573.44;10454538;28;20028;-69
2024/03/18 14:56:40;;;;;;;3.65;3.35;;;;;;;15.56;100.00;101583.50;10454253;28;20044;-69
2024/03/18 15:01:41;;;;;;;4.43;4.10;;;;;;;15.50;100.00;101578.06;10454809;28;20031;-69
2024/03/18 15:06:43;;;;;;;8.05;4.70;;;;;;;15.44;100.00;101579.75;10454829;28;20182;-70
2024/03/18 15:11:43;;;;;;;13.43;4.15;;;;;;;15.32;100.00;101573.28;10455000;28;20040;-69
2024/03/18 15:16:43;;;;;;;7.25;4.15;;;;;;;15.08;100.00;101578.34;10452878;28;20360;-69
2024/03/18 15:21:44;;;;;;;4.90;3.33;;;;;;;15.28;100.00;101572.88;10453414;28;20044;-69
2024/03/18 15:32:04;;;;;;;8.45;2.70;;;;;;;14.51;100.00;101577.03;10454752;28;20033;-69
2024/03/18 15:37:05;;;;;;;3.35;2.58;;;;;;;14.22;100.00;101580.09;10455989;28;20064;-69
2024/03/18 15:42:05;;;;;;;8.88;3.80;;;;;;;13.98;100.00;101579.59;10453882;28;20381;-69
2024/03/18 15:47:06;;;;;;;7.80;3.30;;;;;;;13.85;100.00;101582.28;10454781;28;20032;-68
2024/03/18 15:52:06;;;;;;;3.97;3.60;;;;;;;14.09;100.00;101579.00;10453141;28;20361;-69
2024/03/18 15:57:07;;;;;;;4.88;3.90;;;;;;;14.09;100.00;101580.88;10454559;28;20040;-69
2024/03/18 16:02:09;;;;;;;10.05;5.85;;;;;;;13.76;100.00;101587.03;10461478;28;20052;-69
2024/03/18 16:07:09;;;;;;;26.05;4.97;;;;;;;13.43;100.00;101587.69;10460728;28;20118;-69
2024/03/18 16:12:16;;;;;;;5.88;5.25;;;;;;;13.05;100.00;101579.03;10460752;28;20078;-69
2024/03/18 16:17:16;;;;;;;18.73;5.93;;;;;;;12.72;100.00;101586.88;10460168;28;20029;-69
2024/03/18 16:22:17;;;;;;;9.63;5.25;;;;;;;12.68;100.00;101589.16;10460829;28;20081;-69
2024/03/18 16:27:17;;;;;;;8.10;5.30;;;;;;;12.48;100.00;101588.13;10458741;28;20051;-69
2024/03/18 16:32:18;;;;;;;15.48;7.30;;;;;;;12.26;100.00;101588.09;10459359;28;20037;-68
2024/03/18 16:37:18;;;;;;;19.25;7.05;;;;;;;12.09;100.00;101592.06;10458373;28;20405;-69
2024/03/18 16:42:18;;;;;;;16.90;6.85;;;;;;;11.88;100.00;101602.88;10461195;28;20066;-69
2024/03/18 16:47:19;;;;;;;21.50;6.90;;;;;;;11.61;100.00;101597.03;10459414;28;20068;-68
2024/03/18 16:52:19;;;;;;;18.42;6.50;;;;;;;11.49;100.00;101593.13;10457672;28;20033;-69
2024/03/18 16:57:20;;;;;;;16.90;6.93;;;;;;;11.32;100.00;101603.28;10458391;28;20125;-68
2024/03/18 17:02:21;;;;;;;15.05;5.85;;;;;;;11.21;100.00;101606.47;10474957;28;20040;-69
2024/03/18 17:07:21;;;;;;;13.95;6.63;;;;;;;11.16;100.00;101605.13;10460138;28;20464;-68
2024/03/18 17:12:21;;;;;;;16.13;8.05;;;;;;;11.09;100.00;101601.47;10458706;28;20056;-68
2024/03/18 17:17:22;;;;;;;18.27;6.25;;;;;;;10.93;100.00;101607.06;10458785;28;20048;-68
2024/03/18 17:22:22;;;;;;;19.98;5.68;;;;;;;10.87;100.00;101607.78;10459423;28;20112;-69
2024/03/18 17:27:23;;;;;;;12.02;6.10;;;;;;;10.83;100.00;101622.72;10457917;28;20078;-68
2024/03/18 17:32:23;;;;;;;12.95;7.40;;;;;;;10.74;100.00;101619.22;10455847;28;20052;-69
2024/03/18 17:37:24;;;;;;;7.95;5.80;;;;;;;10.64;100.00;101624.03;10457133;28;20109;-68
2024/03/18 17:42:24;;;;;;;13.77;7.60;;;;;;;10.57;100.00;101623.09;10457205;28;20143;-68
2024/03/18 17:47:25;;;;;;;17.75;7.97;;;;;;;10.50;100.00;101627.50;10457392;28;20040;-68
2024/03/18 17:52:25;;;;;;;14.70;8.05;;;;;;;10.39;100.00;101629.63;10457533;28;20475;-69
2024/03/18 17:57:26;;;;;;;9.65;5.68;;;;;;;10.35;100.00;101622.88;10457498;28;20041;-69
2024/03/18 18:02:27;;;;;;;10.77;5.07;;;;;;;10.32;100.00;101631.34;10456876;28;20041;-68
2024/03/18 18:07:27;;;;;;;10.57;6.57;;;;;;;10.26;100.00;101634.78;10455622;28;20049;-68
2024/03/18 18:12:28;;;;;;;13.45;6.57;;;;;;;10.09;100.00;101643.97;10457049;28;20433;-68
2024/03/18 18:17:29;;;;;;;17.85;6.60;;;;;;;10.07;100.00;101644.13;10456002;28;20033;-68
2024/03/18 18:22:29;;;;;;;9.95;5.50;;;;;;;9.97;100.00;101646.22;10455199;28;20025;-68
2024/03/18 18:27:30;;;;;;;14.80;7.35;;;;;;;9.96;100.00;101652.66;10455378;28;20033;-68
2024/03/18 18:32:30;;;;;;;11.27;6.82;;;;;;;9.85;100.00;101659.25;10455593;28;20111;-68
2024/03/18 18:37:31;;;;;;;26.67;8.77;;;;;;;9.79;100.00;101659.97;10456136;28;20070;-68
2024/03/18 18:42:31;;;;;;;16.52;10.48;;;;;;;9.77;100.00;101665.56;10456102;28;20028;-68
2024/03/18 18:47:33;;;;;;;10.40;8.18;;;;;;;9.74;100.00;101657.78;10453584;28;20057;-69
2024/03/18 18:52:34;;;;;;;12.52;7.00;;;;;;;9.67;100.00;101659.50;10455919;28;20033;-68
2024/03/18 18:57:34;;;;;;;17.02;8.48;;;;;;;9.66;100.00;101656.97;10454714;28;20029;-68
2024/03/18 19:02:35;;;;;;;18.77;9.13;;;;;;;9.62;100.00;101664.56;10452221;28;20037;-68
2024/03/18 19:07:36;;;;;;;16.45;8.48;;;;;;;9.52;100.00;101658.53;10455063;28;20053;-68
2024/03/18 19:12:36;;;;;;;19.58;8.85;;;;;;;9.47;100.00;101667.13;10454473;28;20037;-68
2024/03/18 19:17:39;;;;;;;16.60;8.05;;;;;;;9.38;100.00;101661.91;10454915;28;20032;-68
2024/03/18 19:22:42;;;;;;;17.75;9.00;;;;;;;9.40;100.00;101676.94;10453268;28;20033;-68
2024/03/18 19:27:42;;;;;;;19.40;7.20;;;;;;;9.42;100.00;101676.78;10452848;28;20124;-68
2024/03/18 19:32:43;;;;;;;24.10;10.95;;;;;;;9.41;100.00;101678.66;10459783;28;20119;-68
2024/03/18 19:37:43;;;;;;;14.18;10.30;;;;;;;9.45;100.00;101671.03;10462347;28;20503;-68
2024/03/18 19:42:44;;;;;;;27.33;10.48;;;;;;;9.47;100.00;101677.09;10462347;28;20029;-68
2024/03/18 19:47:44;;;;;;;21.20;9.90;;;;;;;9.52;100.00;101675.59;10460788;28;20364;-68
2024/03/18 19:52:45;;;;;;;26.67;10.95;;;;;;;9.56;100.00;101681.47;10462725;28;20025;-68
2024/03/18 19:57:45;;;;;;;17.63;9.57;;;;;;;9.58;100.00;101670.50;10461862;28;20116;-68
2024/03/18 20:02:46;;;;;;;16.45;9.27;;;;;;;9.57;100.00;101663.41;10462123;28;20101;-69
2024/03/18 20:07:46;;;;;;;18.08;8.23;;;;;;;9.57;100.00;101669.66;10460775;28;20061;-69
2024/03/18 20:12:47;;;;;;;9.95;6.28;;;;;;;9.53;100.00;101671.84;10461062;28;20037;-69
2024/03/18 20:17:47;;;;;;;10.35;7.75;;;;;;;9.59;100.00;101678.44;10461016;28;20029;-69
2024/03/18 20:22:47;;;;;;;13.68;5.68;;;;;;;9.59;100.00;101672.19;10461837;28;20041;-69
2024/03/18 20:27:48;;;;;;;12.73;8.30;;;;;;;9.55;100.00;101675.25;10460233;28;20036;-68
2024/03/18 20:32:49;;;;;;;13.00;7.45;;;;;;;9.48;100.00;101676.94;10442362;28;20048;-68
2024/03/18 20:37:50;;;;;;;15.50;8.02;;;;;;;9.43;100.00;101664.94;10460089;28;20044;-68
2024/03/18 20:42:50;;;;;;;12.77;6.80;;;;;;;9.38;100.00;101668.19;10459370;28;20112;-68
2024/03/18 20:47:51;;;;;;;14.93;6.43;;;;;;;9.30;100.00;101669.00;10458478;28;20488;-68
2024/03/18 20:52:52;;;;;;;22.50;6.47;;;;;;;9.31;100.00;101667.16;10459752;28;20067;-67
2024/03/18 20:57:52;;;;;;;14.90;6.53;;;;;;;9.32;100.00;101664.28;10474143;28;20336;-67
2024/03/18 21:02:55;;;;;;;6.85;5.78;;;;;;;9.31;100.00;101665.28;10459360;28;20113;-68
2024/03/18 21:07:55;;;;;;;18.17;6.18;;;;;;;9.32;100.00;101666.16;10459021;28;20160;-68
2024/03/18 21:12:55;;;;;;;17.88;6.35;;;;;;;9.28;100.00;101659.38;10458323;28;20029;-68
2024/03/18 21:17:56;;;;;;;12.27;7.00;;;;;;;9.28;100.00;101656.69;10459698;28;20452;-70
2024/03/18 21:22:57;;;;;;;11.95;7.22;;;;;;;9.31;100.00;101656.34;10457547;28;20059;-68
2024/03/18 21:27:57;;;;;;;9.68;6.07;;;;;;;9.30;100.00;101660.06;10458679;28;20021;-68
2024/03/18 21:32:58;;;;;;;20.10;6.07;;;;;;;9.33;100.00;101665.13;10457941;28;20028;-70
2024/03/18 21:37:58;;;;;;;17.55;6.70;;;;;;;9.31;100.00;101667.16;10457767;28;20029;-69
2024/03/18 21:42:59;;;;;;;14.70;4.68;;;;;;;9.30;100.00;101660.91;10457223;28;20361;-68
2024/03/18 21:47:59;;;;;;;8.20;5.35;;;;;;;9.42;100.00;101655.16;10458084;28;20032;-69
2024/03/18 21:53:04;;;;;;;5.38;4.25;;;;;;;9.41;100.00;101650.75;10456510;28;20037;-69
2024/03/18 21:58:05;;;;;;;9.57;6.00;;;;;;;9.35;100.00;101657.72;10456939;28;20043;-69
2024/03/18 22:03:05;;;;;;;6.53;4.20;;;;;;;9.31;100.00;101654.47;10456387;28;20039;-68
2024/03/18 22:08:06;;;;;;;9.63;4.88;;;;;;;9.27;100.00;101655.00;10455815;28;20048;-69
2024/03/18 22:13:06;;;;;;;11.43;5.25;;;;;;;9.27;100.00;101655.84;10471885;28;20415;-68
2024/03/18 22:18:06;;;;;;;20.95;5.68;;;;;;;9.25;100.00;101649.78;10455186;28;20036;-68
2024/03/18 22:23:07;;;;;;;15.50;5.43;;;;;;;9.24;100.00;101644.53;10456540;28;20029;-67
2024/03/18 22:28:07;;;;;;;15.48;4.93;;;;;;;9.22;100.00;101646.53;10454783;28;20025;-67
2024/03/18 22:33:10;;;;;;;9.38;5.53;;;;;;;9.20;100.00;101643.19;10455419;28;20085;-67
2024/03/18 22:38:10;;;;;;;14.88;5.82;;;;;;;9.13;100.00;101639.50;10437636;28;20037;-68
2024/03/18 22:43:11;;;;;;;20.10;6.25;;;;;;;9.05;100.00;101633.06;10455416;28;20368;-67
2024/03/18 22:48:11;;;;;;;12.05;5.53;;;;;;;9.05;100.00;101635.75;10454459;28;20083;-67
2024/03/18 22:53:12;;;;;;;9.48;5.15;;;;;;;9.07;100.00;101633.75;10470333;28;20033;-67